^^
Meteo Knjazevac Station Historical Data
Daily Summary for January 21, 2022 Units:  English    Metric   Both
Daily Weekly Monthly Yearly Custom
  High: Low: Average:
Temperature: 38.3 °F 32.2 °F 34.1 °F
Dew Point: 35.6 °F 28.1 °F 31.2 °F
Humidity: 98% 74% 89%
Wind Speed: 9mph 0mph 3.3mph
Wind Gust: 16mph - -
Wind- - SW
Pressure: 30.23 in 30.10 in -
Precipitation: 0.13 in    
Historical Graphs
 
 
Tabular Data for January 21, 2022
Time Temperature Dew Point Pressure Wind Wind Speed Wind Gust Humidity Rainfall Rate (Hourly) solar Conditions
00:00 38.3 °F 35.6 °F 30.10 in NNE 2 mph 8 mph 90% 0.00 in 0 W/m2
00:10 38 °F 35.6 °F 30.11 in NNE 3 mph 8 mph 91% 0.00 in 0 W/m2
00:20 37.6 °F 35.2 °F 30.11 in NNE 6 mph 10 mph 91% 0.00 in 0 W/m2
00:30 37.1 °F 34.7 °F 30.11 in NNE 6 mph 12 mph 91% 0.00 in 0 W/m2
00:40 36.7 °F 34.8 °F 30.12 in NNE 5 mph 12 mph 93% 0.00 in 0 W/m2
00:50 36.3 °F 34.5 °F 30.11 in NNE 2 mph 6 mph 93% 0.01 in 0 W/m2
01:00 36 °F 34.1 °F 30.12 in NNE 1 mph 4 mph 93% 0.00 in 0 W/m2
01:10 35.8 °F 34 °F 30.12 in NNE 1 mph 4 mph 93% 0.00 in 0 W/m2
01:20 35.6 °F 34 °F 30.13 in North 1 mph 5 mph 94% 0.00 in 0 W/m2
01:30 35.4 °F 33.9 °F 30.13 in NNW 1 mph 5 mph 94% 0.00 in 0 W/m2
01:40 35.2 °F 33.7 °F 30.13 in WNW 1 mph 4 mph 94% 0.00 in 0 W/m2
01:50 35.1 °F 33.5 °F 30.13 in NW 1 mph 5 mph 94% 0.00 in 0 W/m2
02:00 34.8 °F 33.2 °F 30.13 in Calm   3 mph 94% 0.00 in 0 W/m2
02:10 34.6 °F 33 °F 30.12 in West 1 mph 2 mph 94% 0.00 in 0 W/m2
02:20 34.3 °F 33.1 °F 30.12 in SW 1 mph 3 mph 95% 0.00 in 0 W/m2
02:30 34.2 °F 32.9 °F 30.12 in WSW 2 mph 4 mph 95% 0.00 in 0 W/m2
02:40 34 °F 32.7 °F 30.12 in West 1 mph 5 mph 95% 0.00 in 0 W/m2
02:50 34 °F 33 °F 30.13 in West 3 mph 5 mph 96% 0.00 in 0 W/m2
03:00 33.8 °F 32.8 °F 30.13 in WNW 2 mph 4 mph 96% 0.00 in 0 W/m2
03:10 33.8 °F 32.8 °F 30.13 in NW 2 mph 5 mph 96% 0.00 in 0 W/m2
03:20 33.8 °F 33.3 °F 30.13 in NNW 1 mph 3 mph 98% 0.00 in 0 W/m2
03:30 33.8 °F 33.3 °F 30.13 in NNW 1 mph 2 mph 98% 0.00 in 0 W/m2
03:40 33.8 °F 33.3 °F 30.14 in North 3 mph 8 mph 98% 0.00 in 0 W/m2
03:50 33.4 °F 32.9 °F 30.14 in Calm   7 mph 98% 0.00 in 0 W/m2
04:00 33.4 °F 32.9 °F 30.14 in NE 3 mph 6 mph 98% 0.00 in 0 W/m2
04:10 33.3 °F 32.8 °F 30.15 in Calm   6 mph 98% 0.00 in 0 W/m2
04:20 33.3 °F 32.8 °F 30.15 in NNE 3 mph 6 mph 98% 0.00 in 0 W/m2
04:30 33.3 °F 32.2 °F 30.15 in North 3 mph 7 mph 96% 0.00 in 0 W/m2
04:40 33.3 °F 31.7 °F 30.16 in NNE 3 mph 12 mph 94% 0.00 in 0 W/m2
04:50 33.3 °F 31.7 °F 30.16 in North 1 mph 10 mph 94% 0.00 in 0 W/m2
05:00 33.3 °F 31.7 °F 30.16 in NNW 1 mph 5 mph 94% 0.00 in 0 W/m2
05:10 33.3 °F 32 °F 30.16 in West 1 mph 3 mph 95% 0.00 in 0 W/m2
05:20 33.3 °F 32 °F 30.16 in South 1 mph 2 mph 95% 0.00 in 0 W/m2
05:30 33.1 °F 31.8 °F 30.16 in SW 2 mph 3 mph 95% 0.00 in 0 W/m2
05:40 32.9 °F 31.6 °F 30.16 in WNW 2 mph 4 mph 95% 0.00 in 0 W/m2
05:50 32.9 °F 31.6 °F 30.16 in WSW 1 mph 4 mph 95% 0.00 in 0 W/m2
06:00 33.1 °F 31.8 °F 30.17 in West 3 mph 7 mph 95% 0.00 in 0 W/m2
06:10 32.9 °F 31.6 °F 30.17 in West 5 mph 7 mph 95% 0.00 in 0 W/m2
06:20 32.9 °F 31.4 °F 30.16 in WSW 5 mph 7 mph 94% 0.00 in 0 W/m2
06:30 32.9 °F 31.1 °F 30.17 in WSW 2 mph 7 mph 93% 0.00 in 0 W/m2
06:40 32.9 °F 31.1 °F 30.18 in NW 3 mph 5 mph 93% 0.00 in 0 W/m2
06:50 32.7 °F 30.4 °F 30.18 in WSW 7 mph 10 mph 91% 0.00 in 0 W/m2
07:00 32.5 °F 29.9 °F 30.18 in WSW 7 mph 13 mph 90% 0.00 in 1 W/m2
07:10 32.5 °F 29.9 °F 30.19 in WSW 7 mph 13 mph 90% 0.00 in 3 W/m2
07:20 32.5 °F 29.9 °F 30.19 in West 2 mph 9 mph 90% 0.00 in 6 W/m2
07:30 32.4 °F 29.8 °F 30.20 in WSW 1 mph 5 mph 90% 0.00 in 13 W/m2
07:40 32.4 °F 29.8 °F 30.20 in SSW 1 mph 5 mph 90% 0.00 in 18 W/m2
07:50 32.2 °F 29.6 °F 30.21 in SSW 2 mph 5 mph 90% 0.00 in 21 W/m2
08:00 32.2 °F 29.6 °F 30.21 in SW 3 mph 5 mph 90% 0.00 in 23 W/m2
08:10 32.2 °F 29.3 °F 30.21 in SW 2 mph 5 mph 89% 0.00 in 28 W/m2
08:20 32.2 °F 29.3 °F 30.21 in SW 2 mph 5 mph 89% 0.00 in 35 W/m2
08:30 32.2 °F 29.3 °F 30.20 in Calm   6 mph 89% 0.00 in 55 W/m2
08:40 32.2 °F 29.6 °F 30.21 in WSW 2 mph 6 mph 90% 0.00 in 66 W/m2
08:50 32.2 °F 29.9 °F 30.21 in SW 3 mph 6 mph 91% 0.00 in 71 W/m2
09:00 32.4 °F 29.8 °F 30.21 in Calm   5 mph 90% 0.00 in 68 W/m2
09:10 32.5 °F 30.2 °F 30.22 in Calm   3 mph 91% 0.00 in 75 W/m2
09:20 32.5 °F 30.2 °F 30.22 in Calm   2 mph 91% 0.00 in 108 W/m2
09:30 32.9 °F 30.6 °F 30.22 in West 2 mph 3 mph 91% 0.00 in 141 W/m2
09:40 33.1 °F 30.2 °F 30.23 in WSW 1 mph 4 mph 89% 0.00 in 153 W/m2
09:50 33.4 °F 30.5 °F 30.23 in West 2 mph 5 mph 89% 0.00 in 151 W/m2
10:00 33.6 °F 29.9 °F 30.23 in WSW 3 mph 7 mph 86% 0.00 in 159 W/m2
10:10 33.8 °F 29.8 °F 30.23 in WSW 5 mph 7 mph 85% 0.00 in 172 W/m2
10:20 33.8 °F 29.5 °F 30.23 in WSW 5 mph 8 mph 84% 0.00 in 171 W/m2
10:30 33.8 °F 29.5 °F 30.23 in WSW 5 mph 11 mph 84% 0.00 in 167 W/m2
10:40 34 °F 29.9 °F 30.23 in WSW 3 mph 7 mph 85% 0.00 in 159 W/m2
10:50 34 °F 29.7 °F 30.23 in WSW 5 mph 6 mph 84% 0.00 in 181 W/m2
11:00 34.2 °F 29.5 °F 30.23 in WSW 5 mph 9 mph 83% 0.00 in 163 W/m2
11:10 34.3 °F 30 °F 30.23 in WSW 3 mph 6 mph 84% 0.11 in 165 W/m2
11:20 34.5 °F 30.2 °F 30.22 in WSW 3 mph 6 mph 84% 0.00 in 192 W/m2
11:30 34.7 °F 29.5 °F 30.22 in WSW 6 mph 7 mph 81% 0.00 in 227 W/m2
11:40 35 °F 30.4 °F 30.22 in WSW 5 mph 8 mph 83% 0.00 in 245 W/m2
11:50 35.2 °F 30 °F 30.22 in WSW 5 mph 11 mph 81% 0.00 in 220 W/m2
12:00 35.4 °F 29.6 °F 30.21 in WSW 6 mph 9 mph 79% 0.00 in 244 W/m2
12:10 35.6 °F 29.7 °F 30.21 in WSW 5 mph 9 mph 79% 0.00 in 250 W/m2
12:20 35.6 °F 29.1 °F 30.20 in WSW 9 mph 14 mph 77% 0.00 in 234 W/m2
12:30 35.6 °F 29.1 °F 30.20 in WSW 7 mph 14 mph 77% 0.00 in 251 W/m2
12:40 35.8 °F 28.6 °F 30.20 in West 8 mph 14 mph 75% 0.00 in 204 W/m2
12:50 36 °F 28.5 °F 30.20 in WSW 6 mph 15 mph 74% 0.00 in 188 W/m2
13:00 36 °F 28.5 °F 30.20 in West 5 mph 10 mph 74% 0.00 in 88 W/m2
13:10 35.8 °F 28.3 °F 30.20 in West 5 mph 12 mph 74% 0.00 in 80 W/m2
13:20 35.4 °F 28.3 °F 30.19 in WNW 3 mph 8 mph 75% 0.00 in 85 W/m2
13:30 35.2 °F 28.1 °F 30.19 in WSW 8 mph 15 mph 75% 0.00 in 135 W/m2
13:40 34.2 °F 29 °F 30.19 in WSW 9 mph 16 mph 81% 0.00 in 164 W/m2
13:50 34 °F 29.7 °F 30.19 in WSW 6 mph 11 mph 84% 0.00 in 150 W/m2
14:00 34.3 °F 30 °F 30.19 in WSW 6 mph 9 mph 84% 0.00 in 97 W/m2
14:10 34.9 °F 30.2 °F 30.19 in WSW 5 mph 9 mph 83% 0.00 in 184 W/m2
14:20 35.2 °F 29.7 °F 30.19 in WNW 7 mph 12 mph 80% 0.00 in 76 W/m2
14:30 35.1 °F 28.9 °F 30.19 in WNW 8 mph 15 mph 78% 0.00 in 73 W/m2
Knjazevac, Serbia
Compliments of Weather Underground - 2 mb